sensor_id;sensor_type;location;lat;lon;timestamp;pressure;altitude;pressure_sealevel;temperature;humidity
62926;BME280;55732;52.248;-0.844;2023-02-12T00:00:20;102907.86;;;8.33;79.26
62926;BME280;55732;52.248;-0.844;2023-02-12T00:02:46;102903.11;;;8.32;79.27
62926;BME280;55732;52.248;-0.844;2023-02-12T00:05:11;102899.81;;;8.33;79.34
62926;BME280;55732;52.248;-0.844;2023-02-12T00:07:36;102900.88;;;8.33;79.30
62926;BME280;55732;52.248;-0.844;2023-02-12T00:10:02;102899.57;;;8.32;79.35
62926;BME280;55732;52.248;-0.844;2023-02-12T00:12:28;102899.85;;;8.31;79.39
62926;BME280;55732;52.248;-0.844;2023-02-12T00:14:53;102902.19;;;8.29;79.09
62926;BME280;55732;52.248;-0.844;2023-02-12T00:17:19;102895.40;;;8.26;79.17
62926;BME280;55732;52.248;-0.844;2023-02-12T00:19:46;102891.05;;;8.22;79.19
62926;BME280;55732;52.248;-0.844;2023-02-12T00:22:12;102892.84;;;8.20;79.39
62926;BME280;55732;52.248;-0.844;2023-02-12T00:24:38;102892.61;;;8.19;79.65
62926;BME280;55732;52.248;-0.844;2023-02-12T00:27:03;102892.08;;;8.18;79.55
62926;BME280;55732;52.248;-0.844;2023-02-12T00:29:28;102887.52;;;8.18;79.61
62926;BME280;55732;52.248;-0.844;2023-02-12T00:31:54;102894.02;;;8.19;79.73
62926;BME280;55732;52.248;-0.844;2023-02-12T00:34:19;102892.81;;;8.19;79.70
62926;BME280;55732;52.248;-0.844;2023-02-12T00:36:45;102895.52;;;8.21;79.86
62926;BME280;55732;52.248;-0.844;2023-02-12T00:39:10;102895.83;;;8.23;79.75
62926;BME280;55732;52.248;-0.844;2023-02-12T00:41:36;102896.52;;;8.23;79.61
62926;BME280;55732;52.248;-0.844;2023-02-12T00:44:02;102902.74;;;8.21;79.68
62926;BME280;55732;52.248;-0.844;2023-02-12T00:46:27;102905.38;;;8.21;79.76
62926;BME280;55732;52.248;-0.844;2023-02-12T00:48:53;102906.77;;;8.21;79.77
62926;BME280;55732;52.248;-0.844;2023-02-12T00:51:19;102908.27;;;8.20;79.79
62926;BME280;55732;52.248;-0.844;2023-02-12T00:53:44;102909.59;;;8.18;79.66
62926;BME280;55732;52.248;-0.844;2023-02-12T00:56:09;102904.70;;;8.14;79.51
62926;BME280;55732;52.248;-0.844;2023-02-12T00:58:35;102905.54;;;8.10;79.79
62926;BME280;55732;52.248;-0.844;2023-02-12T01:01:00;102909.46;;;8.07;79.84
62926;BME280;55732;52.248;-0.844;2023-02-12T01:03:26;102912.06;;;8.07;80.03
62926;BME280;55732;52.248;-0.844;2023-02-12T01:05:52;102912.95;;;8.07;80.10
62926;BME280;55732;52.248;-0.844;2023-02-12T01:08:17;102911.20;;;8.07;80.20
62926;BME280;55732;52.248;-0.844;2023-02-12T01:10:43;102909.71;;;8.09;80.54
62926;BME280;55732;52.248;-0.844;2023-02-12T01:13:13;102909.17;;;8.12;80.34
62926;BME280;55732;52.248;-0.844;2023-02-12T01:15:40;102906.79;;;8.14;80.30
62926;BME280;55732;52.248;-0.844;2023-02-12T01:18:06;102906.63;;;8.14;80.24
62926;BME280;55732;52.248;-0.844;2023-02-12T01:20:32;102908.59;;;8.15;80.38
62926;BME280;55732;52.248;-0.844;2023-02-12T01:22:57;102915.77;;;8.15;80.22
62926;BME280;55732;52.248;-0.844;2023-02-12T01:25:23;102914.30;;;8.13;80.28
62926;BME280;55732;52.248;-0.844;2023-02-12T01:27:52;102915.23;;;8.10;80.21
62926;BME280;55732;52.248;-0.844;2023-02-12T01:30:18;102919.30;;;8.08;80.31
62926;BME280;55732;52.248;-0.844;2023-02-12T01:32:46;102915.02;;;8.06;80.40
62926;BME280;55732;52.248;-0.844;2023-02-12T01:35:11;102918.27;;;8.04;80.50
62926;BME280;55732;52.248;-0.844;2023-02-12T01:37:37;102914.16;;;8.03;80.34
62926;BME280;55732;52.248;-0.844;2023-02-12T01:40:04;102910.27;;;8.02;80.44
62926;BME280;55732;52.248;-0.844;2023-02-12T01:42:30;102908.18;;;8.02;80.60
62926;BME280;55732;52.248;-0.844;2023-02-12T01:47:36;102902.44;;;8.07;80.54
62926;BME280;55732;52.248;-0.844;2023-02-12T01:50:02;102896.65;;;8.11;80.53
62926;BME280;55732;52.248;-0.844;2023-02-12T01:52:31;102896.79;;;8.14;80.35
62926;BME280;55732;52.248;-0.844;2023-02-12T01:55:01;102900.15;;;8.15;80.35
62926;BME280;55732;52.248;-0.844;2023-02-12T01:57:31;102899.59;;;8.14;80.33
62926;BME280;55732;52.248;-0.844;2023-02-12T01:59:59;102897.58;;;8.12;80.31
62926;BME280;55732;52.248;-0.844;2023-02-12T02:02:26;102893.80;;;8.10;80.39
62926;BME280;55732;52.248;-0.844;2023-02-12T02:04:55;102895.60;;;8.11;80.33
62926;BME280;55732;52.248;-0.844;2023-02-12T02:07:22;102892.92;;;8.10;80.16
62926;BME280;55732;52.248;-0.844;2023-02-12T02:09:48;102895.91;;;8.10;80.27
62926;BME280;55732;52.248;-0.844;2023-02-12T02:12:14;102901.02;;;8.11;80.29
62926;BME280;55732;52.248;-0.844;2023-02-12T02:15:00;102893.60;;;8.09;80.31
62926;BME280;55732;52.248;-0.844;2023-02-12T02:17:36;102885.67;;;8.09;80.43
62926;BME280;55732;52.248;-0.844;2023-02-12T02:31:41;102886.52;;;7.96;80.47
62926;BME280;55732;52.248;-0.844;2023-02-12T02:34:27;102887.63;;;7.94;80.57
62926;BME280;55732;52.248;-0.844;2023-02-12T02:37:31;102885.64;;;7.93;80.64
62926;BME280;55732;52.248;-0.844;2023-02-12T02:40:13;102890.23;;;7.93;80.75
62926;BME280;55732;52.248;-0.844;2023-02-12T02:42:42;102896.14;;;7.96;80.72
62926;BME280;55732;52.248;-0.844;2023-02-12T02:45:19;102894.10;;;7.97;80.68
62926;BME280;55732;52.248;-0.844;2023-02-12T02:47:51;102892.88;;;7.97;80.73
62926;BME280;55732;52.248;-0.844;2023-02-12T02:50:21;102895.36;;;7.98;80.81
62926;BME280;55732;52.248;-0.844;2023-02-12T02:53:27;102900.34;;;8.00;80.76
62926;BME280;55732;52.248;-0.844;2023-02-12T02:55:57;102891.66;;;7.98;80.64
62926;BME280;55732;52.248;-0.844;2023-02-12T03:01:00;102890.05;;;7.93;80.91
62926;BME280;55732;52.248;-0.844;2023-02-12T03:06:03;102887.37;;;7.88;80.84
62926;BME280;55732;52.248;-0.844;2023-02-12T03:08:37;102883.59;;;7.86;80.84
62926;BME280;55732;52.248;-0.844;2023-02-12T03:11:11;102886.39;;;7.86;80.98
62926;BME280;55732;52.248;-0.844;2023-02-12T03:13:49;102882.74;;;7.87;81.04
62926;BME280;55732;52.248;-0.844;2023-02-12T03:19:02;102880.17;;;7.92;80.91
62926;BME280;55732;52.248;-0.844;2023-02-12T03:21:36;102877.21;;;7.93;80.98
62926;BME280;55732;52.248;-0.844;2023-02-12T03:29:47;102885.33;;;7.90;80.73
62926;BME280;55732;52.248;-0.844;2023-02-12T03:32:33;102883.41;;;7.86;80.85
62926;BME280;55732;52.248;-0.844;2023-02-12T03:37:35;102883.04;;;7.82;81.04
62926;BME280;55732;52.248;-0.844;2023-02-12T03:47:55;102884.80;;;7.78;81.21
62926;BME280;55732;52.248;-0.844;2023-02-12T03:53:12;102891.77;;;7.77;81.30
62926;BME280;55732;52.248;-0.844;2023-02-12T03:55:41;102889.83;;;7.77;81.25
62926;BME280;55732;52.248;-0.844;2023-02-12T03:58:09;102886.80;;;7.76;81.33
62926;BME280;55732;52.248;-0.844;2023-02-12T04:00:37;102887.96;;;7.75;81.33
62926;BME280;55732;52.248;-0.844;2023-02-12T04:03:04;102887.89;;;7.73;81.39
62926;BME280;55732;52.248;-0.844;2023-02-12T04:05:30;102890.24;;;7.72;81.40
62926;BME280;55732;52.248;-0.844;2023-02-12T04:07:57;102890.89;;;7.70;81.57
62926;BME280;55732;52.248;-0.844;2023-02-12T04:10:30;102887.10;;;7.68;81.48
62926;BME280;55732;52.248;-0.844;2023-02-12T04:13:16;102889.64;;;7.66;81.65
62926;BME280;55732;52.248;-0.844;2023-02-12T04:16:06;102894.38;;;7.66;81.67
62926;BME280;55732;52.248;-0.844;2023-02-12T04:18:42;102895.81;;;7.67;81.76
62926;BME280;55732;52.248;-0.844;2023-02-12T04:24:12;102895.00;;;7.72;81.67
62926;BME280;55732;52.248;-0.844;2023-02-12T04:27:01;102893.83;;;7.73;81.66
62926;BME280;55732;52.248;-0.844;2023-02-12T04:34:32;102890.52;;;7.73;81.43
62926;BME280;55732;52.248;-0.844;2023-02-12T04:37:14;102890.06;;;7.71;81.36
62926;BME280;55732;52.248;-0.844;2023-02-12T04:39:41;102898.40;;;7.70;81.32
62926;BME280;55732;52.248;-0.844;2023-02-12T04:42:08;102902.06;;;7.69;81.31
62926;BME280;55732;52.248;-0.844;2023-02-12T04:44:37;102899.20;;;7.68;81.35
62926;BME280;55732;52.248;-0.844;2023-02-12T04:47:03;102896.23;;;7.69;81.58
62926;BME280;55732;52.248;-0.844;2023-02-12T04:49:29;102896.83;;;7.70;81.60
62926;BME280;55732;52.248;-0.844;2023-02-12T04:51:54;102897.05;;;7.71;81.58
62926;BME280;55732;52.248;-0.844;2023-02-12T04:54:21;102898.15;;;7.72;81.66
62926;BME280;55732;52.248;-0.844;2023-02-12T04:56:47;102903.28;;;7.73;81.64
62926;BME280;55732;52.248;-0.844;2023-02-12T04:59:14;102903.64;;;7.73;81.59
62926;BME280;55732;52.248;-0.844;2023-02-12T05:01:40;102896.10;;;7.73;81.56
62926;BME280;55732;52.248;-0.844;2023-02-12T05:04:08;102897.79;;;7.72;81.22
62926;BME280;55732;52.248;-0.844;2023-02-12T05:06:35;102901.14;;;7.68;81.29
62926;BME280;55732;52.248;-0.844;2023-02-12T05:09:01;102902.77;;;7.66;81.28
62926;BME280;55732;52.248;-0.844;2023-02-12T05:11:27;102900.65;;;7.61;81.23
62926;BME280;55732;52.248;-0.844;2023-02-12T05:13:53;102900.89;;;7.59;81.49
62926;BME280;55732;52.248;-0.844;2023-02-12T05:16:19;102903.30;;;7.59;81.61
62926;BME280;55732;52.248;-0.844;2023-02-12T05:18:45;102899.27;;;7.59;81.62
62926;BME280;55732;52.248;-0.844;2023-02-12T05:21:11;102896.10;;;7.58;81.55
62926;BME280;55732;52.248;-0.844;2023-02-12T05:23:38;102896.33;;;7.59;81.66
62926;BME280;55732;52.248;-0.844;2023-02-12T05:26:07;102899.37;;;7.60;81.82
62926;BME280;55732;52.248;-0.844;2023-02-12T05:28:33;102903.63;;;7.61;81.67
62926;BME280;55732;52.248;-0.844;2023-02-12T05:31:04;102895.15;;;7.60;81.53
62926;BME280;55732;52.248;-0.844;2023-02-12T05:33:31;102894.40;;;7.59;81.60
62926;BME280;55732;52.248;-0.844;2023-02-12T05:36:07;102895.64;;;7.56;81.48
62926;BME280;55732;52.248;-0.844;2023-02-12T05:38:33;102892.06;;;7.51;81.74
62926;BME280;55732;52.248;-0.844;2023-02-12T05:41:03;102889.99;;;7.48;81.88
62926;BME280;55732;52.248;-0.844;2023-02-12T05:43:29;102893.76;;;7.46;81.86
62926;BME280;55732;52.248;-0.844;2023-02-12T05:45:57;102890.23;;;7.46;81.97
62926;BME280;55732;52.248;-0.844;2023-02-12T05:48:23;102886.23;;;7.46;82.07
62926;BME280;55732;52.248;-0.844;2023-02-12T05:50:49;102886.59;;;7.47;81.92
62926;BME280;55732;52.248;-0.844;2023-02-12T05:53:14;102890.38;;;7.45;81.95
62926;BME280;55732;52.248;-0.844;2023-02-12T05:55:39;102886.63;;;7.44;81.93
62926;BME280;55732;52.248;-0.844;2023-02-12T05:58:05;102884.41;;;7.41;82.02
62926;BME280;55732;52.248;-0.844;2023-02-12T06:00:30;102889.44;;;7.40;82.23
62926;BME280;55732;52.248;-0.844;2023-02-12T06:02:56;102883.79;;;7.43;81.97
62926;BME280;55732;52.248;-0.844;2023-02-12T06:05:21;102879.61;;;7.43;81.84
62926;BME280;55732;52.248;-0.844;2023-02-12T06:07:46;102883.10;;;7.43;81.93
62926;BME280;55732;52.248;-0.844;2023-02-12T06:10:12;102882.09;;;7.44;81.84
62926;BME280;55732;52.248;-0.844;2023-02-12T06:12:37;102877.20;;;7.45;81.83
62926;BME280;55732;52.248;-0.844;2023-02-12T06:15:03;102876.30;;;7.44;82.08
62926;BME280;55732;52.248;-0.844;2023-02-12T06:17:28;102883.40;;;7.42;81.83
62926;BME280;55732;52.248;-0.844;2023-02-12T06:19:53;102879.64;;;7.37;81.95
62926;BME280;55732;52.248;-0.844;2023-02-12T06:22:19;102879.61;;;7.36;82.23
62926;BME280;55732;52.248;-0.844;2023-02-12T06:24:44;102878.27;;;7.38;82.16
62926;BME280;55732;52.248;-0.844;2023-02-12T06:27:10;102876.35;;;7.38;82.12
62926;BME280;55732;52.248;-0.844;2023-02-12T06:29:35;102879.02;;;7.38;82.10
62926;BME280;55732;52.248;-0.844;2023-02-12T06:32:00;102874.91;;;7.37;82.08
62926;BME280;55732;52.248;-0.844;2023-02-12T06:34:26;102874.88;;;7.36;82.15
62926;BME280;55732;52.248;-0.844;2023-02-12T06:36:51;102875.31;;;7.35;82.04
62926;BME280;55732;52.248;-0.844;2023-02-12T06:39:17;102877.42;;;7.31;81.92
62926;BME280;55732;52.248;-0.844;2023-02-12T06:41:43;102874.70;;;7.29;82.19
62926;BME280;55732;52.248;-0.844;2023-02-12T06:44:09;102877.89;;;7.30;82.32
62926;BME280;55732;52.248;-0.844;2023-02-12T06:46:35;102877.60;;;7.31;82.30
62926;BME280;55732;52.248;-0.844;2023-02-12T06:49:01;102874.70;;;7.33;82.43
62926;BME280;55732;52.248;-0.844;2023-02-12T06:51:28;102872.05;;;7.36;82.22
62926;BME280;55732;52.248;-0.844;2023-02-12T06:53:54;102874.94;;;7.38;82.02
62926;BME280;55732;52.248;-0.844;2023-02-12T06:56:21;102872.85;;;7.38;82.09
62926;BME280;55732;52.248;-0.844;2023-02-12T06:58:52;102879.98;;;7.37;81.84
62926;BME280;55732;52.248;-0.844;2023-02-12T07:01:21;102881.93;;;7.34;81.89
62926;BME280;55732;52.248;-0.844;2023-02-12T07:03:51;102883.22;;;7.32;81.91
62926;BME280;55732;52.248;-0.844;2023-02-12T07:06:18;102876.81;;;7.29;81.98
62926;BME280;55732;52.248;-0.844;2023-02-12T07:08:44;102880.79;;;7.28;82.01
62926;BME280;55732;52.248;-0.844;2023-02-12T07:11:10;102883.27;;;7.29;82.06
62926;BME280;55732;52.248;-0.844;2023-02-12T07:13:35;102888.59;;;7.30;82.15
62926;BME280;55732;52.248;-0.844;2023-02-12T07:16:06;102889.70;;;7.31;82.18
62926;BME280;55732;52.248;-0.844;2023-02-12T07:18:36;102888.13;;;7.31;82.23
62926;BME280;55732;52.248;-0.844;2023-02-12T07:21:03;102890.95;;;7.32;82.33
62926;BME280;55732;52.248;-0.844;2023-02-12T07:23:30;102891.55;;;7.33;82.33
62926;BME280;55732;52.248;-0.844;2023-02-12T07:26:00;102895.45;;;7.34;82.36
62926;BME280;55732;52.248;-0.844;2023-02-12T07:28:26;102899.92;;;7.36;82.36
62926;BME280;55732;52.248;-0.844;2023-02-12T07:30:52;102902.77;;;7.37;82.28
62926;BME280;55732;52.248;-0.844;2023-02-12T07:33:18;102898.35;;;7.36;82.19
62926;BME280;55732;52.248;-0.844;2023-02-12T07:35:44;102901.41;;;7.35;82.21
62926;BME280;55732;52.248;-0.844;2023-02-12T07:38:10;102905.73;;;7.33;82.09
62926;BME280;55732;52.248;-0.844;2023-02-12T07:40:36;102911.89;;;7.30;82.03
62926;BME280;55732;52.248;-0.844;2023-02-12T07:43:01;102914.73;;;7.27;81.96
62926;BME280;55732;52.248;-0.844;2023-02-12T07:45:27;102912.62;;;7.27;82.14
62926;BME280;55732;52.248;-0.844;2023-02-12T07:47:52;102907.09;;;7.29;82.26
62926;BME280;55732;52.248;-0.844;2023-02-12T07:50:18;102906.34;;;7.31;82.41
62926;BME280;55732;52.248;-0.844;2023-02-12T07:52:43;102907.54;;;7.34;82.34
62926;BME280;55732;52.248;-0.844;2023-02-12T07:55:09;102912.09;;;7.37;82.12
62926;BME280;55732;52.248;-0.844;2023-02-12T07:57:35;102909.52;;;7.38;81.85
62926;BME280;55732;52.248;-0.844;2023-02-12T08:00:00;102910.38;;;7.38;81.82
62926;BME280;55732;52.248;-0.844;2023-02-12T08:02:26;102914.30;;;7.40;81.89
62926;BME280;55732;52.248;-0.844;2023-02-12T08:04:56;102915.98;;;7.38;81.49
62926;BME280;55732;52.248;-0.844;2023-02-12T08:07:22;102920.46;;;7.37;81.50
62926;BME280;55732;52.248;-0.844;2023-02-12T08:09:48;102918.55;;;7.37;81.56
62926;BME280;55732;52.248;-0.844;2023-02-12T08:12:13;102919.28;;;7.38;81.48
62926;BME280;55732;52.248;-0.844;2023-02-12T08:14:39;102920.06;;;7.39;81.44
62926;BME280;55732;52.248;-0.844;2023-02-12T08:17:05;102922.67;;;7.42;81.62
62926;BME280;55732;52.248;-0.844;2023-02-12T08:19:30;102926.67;;;7.46;81.67
62926;BME280;55732;52.248;-0.844;2023-02-12T08:21:56;102924.42;;;7.49;81.60
62926;BME280;55732;52.248;-0.844;2023-02-12T08:24:23;102927.88;;;7.52;81.63
62926;BME280;55732;52.248;-0.844;2023-02-12T08:26:48;102927.86;;;7.55;81.65
62926;BME280;55732;52.248;-0.844;2023-02-12T08:29:17;102926.21;;;7.57;81.45
62926;BME280;55732;52.248;-0.844;2023-02-12T08:31:45;102928.05;;;7.59;81.53
62926;BME280;55732;52.248;-0.844;2023-02-12T08:34:17;102927.27;;;7.61;81.54
62926;BME280;55732;52.248;-0.844;2023-02-12T08:36:43;102928.71;;;7.62;81.40
62926;BME280;55732;52.248;-0.844;2023-02-12T08:39:09;102927.52;;;7.62;81.41
62926;BME280;55732;52.248;-0.844;2023-02-12T08:41:35;102929.16;;;7.64;81.40
62926;BME280;55732;52.248;-0.844;2023-02-12T08:44:03;102930.94;;;7.64;81.18
62926;BME280;55732;52.248;-0.844;2023-02-12T08:46:32;102930.32;;;7.66;80.98
62926;BME280;55732;52.248;-0.844;2023-02-12T08:49:03;102929.60;;;7.70;80.85
62926;BME280;55732;52.248;-0.844;2023-02-12T08:51:32;102929.31;;;7.74;80.86
62926;BME280;55732;52.248;-0.844;2023-02-12T08:53:59;102934.92;;;7.78;80.71
62926;BME280;55732;52.248;-0.844;2023-02-12T08:56:27;102935.92;;;7.80;80.44
62926;BME280;55732;52.248;-0.844;2023-02-12T08:58:56;102935.31;;;7.82;80.29
62926;BME280;55732;52.248;-0.844;2023-02-12T09:01:24;102928.17;;;7.84;80.19
62926;BME280;55732;52.248;-0.844;2023-02-12T09:03:51;102926.71;;;7.86;80.10
62926;BME280;55732;52.248;-0.844;2023-02-12T09:06:19;102923.00;;;7.89;79.94
62926;BME280;55732;52.248;-0.844;2023-02-12T09:08:45;102926.63;;;7.91;79.80
62926;BME280;55732;52.248;-0.844;2023-02-12T09:11:16;102927.39;;;7.93;79.81
62926;BME280;55732;52.248;-0.844;2023-02-12T09:13:43;102931.48;;;7.94;79.59
62926;BME280;55732;52.248;-0.844;2023-02-12T09:16:09;102930.53;;;7.96;79.52
62926;BME280;55732;52.248;-0.844;2023-02-12T09:18:35;102932.17;;;8.01;79.38
62926;BME280;55732;52.248;-0.844;2023-02-12T09:21:06;102934.81;;;8.05;79.18
62926;BME280;55732;52.248;-0.844;2023-02-12T09:23:32;102932.52;;;8.09;79.05
62926;BME280;55732;52.248;-0.844;2023-02-12T09:25:58;102929.72;;;8.13;79.25
62926;BME280;55732;52.248;-0.844;2023-02-12T09:28:23;102930.16;;;8.18;78.97
62926;BME280;55732;52.248;-0.844;2023-02-12T09:30:49;102928.62;;;8.23;78.71
62926;BME280;55732;52.248;-0.844;2023-02-12T09:33:16;102930.36;;;8.27;78.36
62926;BME280;55732;52.248;-0.844;2023-02-12T09:35:41;102926.67;;;8.27;78.11
62926;BME280;55732;52.248;-0.844;2023-02-12T09:38:07;102932.30;;;8.27;78.15
62926;BME280;55732;52.248;-0.844;2023-02-12T09:41:00;102929.48;;;8.26;78.16
62926;BME280;55732;52.248;-0.844;2023-02-12T09:46:28;102928.37;;;8.32;78.17
62926;BME280;55732;52.248;-0.844;2023-02-12T09:51:23;102927.67;;;8.32;77.48
62926;BME280;55732;52.248;-0.844;2023-02-12T09:54:17;102928.40;;;8.32;77.55
62926;BME280;55732;52.248;-0.844;2023-02-12T09:56:49;102929.73;;;8.35;77.47
62926;BME280;55732;52.248;-0.844;2023-02-12T09:59:35;102931.02;;;8.36;77.33
62926;BME280;55732;52.248;-0.844;2023-02-12T10:02:12;102928.65;;;8.39;77.33
62926;BME280;55732;52.248;-0.844;2023-02-12T10:04:38;102930.54;;;8.41;76.99
62926;BME280;55732;52.248;-0.844;2023-02-12T10:15:05;102930.92;;;8.53;76.79
62926;BME280;55732;52.248;-0.844;2023-02-12T10:26:23;102932.11;;;8.68;76.26
62926;BME280;55732;52.248;-0.844;2023-02-12T10:28:38;102926.26;;;8.71;75.96
62926;BME280;55732;52.248;-0.844;2023-02-12T10:33:44;102929.60;;;8.71;75.31
62926;BME280;55732;52.248;-0.844;2023-02-12T10:41:54;102932.67;;;8.74;74.84
62926;BME280;55732;52.248;-0.844;2023-02-12T10:44:20;102935.41;;;8.76;74.69
62926;BME280;55732;52.248;-0.844;2023-02-12T10:46:46;102935.93;;;8.80;74.61
62926;BME280;55732;52.248;-0.844;2023-02-12T10:49:14;102937.37;;;8.84;74.40
62926;BME280;55732;52.248;-0.844;2023-02-12T10:54:44;102936.06;;;8.94;74.35
62926;BME280;55732;52.248;-0.844;2023-02-12T10:59:42;102925.63;;;9.05;73.32
62926;BME280;55732;52.248;-0.844;2023-02-12T11:02:20;102926.80;;;9.08;72.73
62926;BME280;55732;52.248;-0.844;2023-02-12T11:04:46;102927.80;;;9.11;72.65
62926;BME280;55732;52.248;-0.844;2023-02-12T11:07:11;102931.86;;;9.15;72.49
62926;BME280;55732;52.248;-0.844;2023-02-12T11:09:42;102931.91;;;9.21;72.20
62926;BME280;55732;52.248;-0.844;2023-02-12T11:12:18;102930.42;;;9.23;71.69
62926;BME280;55732;52.248;-0.844;2023-02-12T11:14:49;102922.27;;;9.25;71.67
62926;BME280;55732;52.248;-0.844;2023-02-12T11:17:23;102917.98;;;9.32;71.78
62926;BME280;55732;52.248;-0.844;2023-02-12T11:22:30;102916.91;;;9.40;71.45
62926;BME280;55732;52.248;-0.844;2023-02-12T11:25:02;102915.04;;;9.42;71.66
62926;BME280;55732;52.248;-0.844;2023-02-12T11:27:32;102915.51;;;9.45;71.60
62926;BME280;55732;52.248;-0.844;2023-02-12T11:30:11;102911.98;;;9.49;71.34
62926;BME280;55732;52.248;-0.844;2023-02-12T11:32:40;102908.76;;;9.52;71.08
62926;BME280;55732;52.248;-0.844;2023-02-12T11:35:15;102905.64;;;9.53;70.68
62926;BME280;55732;52.248;-0.844;2023-02-12T11:37:48;102914.34;;;9.55;70.89
62926;BME280;55732;52.248;-0.844;2023-02-12T11:40:21;102911.85;;;9.59;70.83
62926;BME280;55732;52.248;-0.844;2023-02-12T11:43:07;102905.58;;;9.65;70.66
62926;BME280;55732;52.248;-0.844;2023-02-12T11:45:43;102900.08;;;9.68;70.57
62926;BME280;55732;52.248;-0.844;2023-02-12T11:48:18;102899.89;;;9.72;70.36
62926;BME280;55732;52.248;-0.844;2023-02-12T11:50:47;102893.83;;;9.74;69.97
62926;BME280;55732;52.248;-0.844;2023-02-12T11:53:20;102890.48;;;9.74;70.05
62926;BME280;55732;52.248;-0.844;2023-02-12T11:55:57;102893.54;;;9.76;69.64
62926;BME280;55732;52.248;-0.844;2023-02-12T11:58:25;102889.77;;;9.78;69.84
62926;BME280;55732;52.248;-0.844;2023-02-12T12:01:02;102889.52;;;9.81;69.72
62926;BME280;55732;52.248;-0.844;2023-02-12T12:17:11;102876.60;;;9.88;68.68
62926;BME280;55732;52.248;-0.844;2023-02-12T12:20:08;102877.03;;;9.90;68.57
62926;BME280;55732;52.248;-0.844;2023-02-12T12:25:14;102880.05;;;9.91;68.45
62926;BME280;55732;52.248;-0.844;2023-02-12T12:38:32;102860.17;;;9.87;68.60
62926;BME280;55732;52.248;-0.844;2023-02-12T12:49:06;102849.45;;;9.92;67.94
62926;BME280;55732;52.248;-0.844;2023-02-12T12:51:43;102842.50;;;9.94;68.03
62926;BME280;55732;52.248;-0.844;2023-02-12T12:57:14;102843.41;;;9.95;67.88
62926;BME280;55732;52.248;-0.844;2023-02-12T12:59:46;102838.71;;;9.92;67.76
62926;BME280;55732;52.248;-0.844;2023-02-12T13:10:49;102817.42;;;9.96;67.77
62926;BME280;55732;52.248;-0.844;2023-02-12T13:21:44;102813.13;;;9.71;67.71
62926;BME280;55732;52.248;-0.844;2023-02-12T13:24:10;102813.09;;;9.66;68.10
62926;BME280;55732;52.248;-0.844;2023-02-12T13:26:59;102812.60;;;9.62;68.36
62926;BME280;55732;52.248;-0.844;2023-02-12T13:29:43;102813.48;;;9.57;68.55
62926;BME280;55732;52.248;-0.844;2023-02-12T13:32:43;102814.84;;;9.56;68.66
62926;BME280;55732;52.248;-0.844;2023-02-12T13:35:04;102814.83;;;9.56;68.64
62926;BME280;55732;52.248;-0.844;2023-02-12T13:37:41;102811.34;;;9.57;68.61
62926;BME280;55732;52.248;-0.844;2023-02-12T13:40:25;102810.56;;;9.60;68.31
62926;BME280;55732;52.248;-0.844;2023-02-12T13:54:01;102807.31;;;9.62;67.47
62926;BME280;55732;52.248;-0.844;2023-02-12T13:59:02;102803.05;;;9.65;67.72
62926;BME280;55732;52.248;-0.844;2023-02-12T14:01:40;102799.69;;;9.64;67.61
62926;BME280;55732;52.248;-0.844;2023-02-12T14:09:30;102789.46;;;9.60;67.98
62926;BME280;55732;52.248;-0.844;2023-02-12T14:11:57;102788.39;;;9.59;67.97
62926;BME280;55732;52.248;-0.844;2023-02-12T14:14:33;102785.66;;;9.57;68.09
62926;BME280;55732;52.248;-0.844;2023-02-12T14:35:46;102777.38;;;9.33;69.32
62926;BME280;55732;52.248;-0.844;2023-02-12T14:45:58;102765.74;;;9.10;70.42
62926;BME280;55732;52.248;-0.844;2023-02-12T14:48:56;102764.80;;;9.04;70.73
62926;BME280;55732;52.248;-0.844;2023-02-12T14:51:27;102760.40;;;9.00;70.90
62926;BME280;55732;52.248;-0.844;2023-02-12T14:53:57;102756.57;;;8.96;71.03
62926;BME280;55732;52.248;-0.844;2023-02-12T14:56:23;102755.15;;;8.96;71.12
62926;BME280;55732;52.248;-0.844;2023-02-12T14:59:02;102748.07;;;8.94;70.94
62926;BME280;55732;52.248;-0.844;2023-02-12T15:01:32;102744.41;;;8.91;71.29
62926;BME280;55732;52.248;-0.844;2023-02-12T15:04:04;102746.65;;;8.86;71.61
62926;BME280;55732;52.248;-0.844;2023-02-12T15:06:40;102744.50;;;8.80;71.76
62926;BME280;55732;52.248;-0.844;2023-02-12T15:09:16;102745.26;;;8.77;72.01
62926;BME280;55732;52.248;-0.844;2023-02-12T15:11:49;102740.20;;;8.74;72.23
62926;BME280;55732;52.248;-0.844;2023-02-12T15:14:34;102733.83;;;8.73;72.54
62926;BME280;55732;52.248;-0.844;2023-02-12T15:17:02;102731.56;;;8.69;72.77
62926;BME280;55732;52.248;-0.844;2023-02-12T15:19:53;102727.08;;;8.66;72.78
62926;BME280;55732;52.248;-0.844;2023-02-12T15:22:31;102720.23;;;8.62;72.69
62926;BME280;55732;52.248;-0.844;2023-02-12T15:25:23;102719.98;;;8.60;72.80
62926;BME280;55732;52.248;-0.844;2023-02-12T15:27:51;102722.16;;;8.58;72.86
62926;BME280;55732;52.248;-0.844;2023-02-12T15:30:22;102713.91;;;8.50;72.79
62926;BME280;55732;52.248;-0.844;2023-02-12T15:32:50;102717.30;;;8.47;72.97
62926;BME280;55732;52.248;-0.844;2023-02-12T15:35:25;102725.06;;;8.47;73.18
62926;BME280;55732;52.248;-0.844;2023-02-12T15:37:52;102718.05;;;8.43;73.29
62926;BME280;55732;52.248;-0.844;2023-02-12T15:40:18;102722.61;;;8.43;73.48
62926;BME280;55732;52.248;-0.844;2023-02-12T15:45:21;102724.06;;;8.41;73.42
62926;BME280;55732;52.248;-0.844;2023-02-12T15:48:20;102719.20;;;8.37;73.56
62926;BME280;55732;52.248;-0.844;2023-02-12T15:51:03;102725.46;;;8.32;73.81
62926;BME280;55732;52.248;-0.844;2023-02-12T15:53:30;102725.08;;;8.28;74.08
62926;BME280;55732;52.248;-0.844;2023-02-12T15:55:57;102726.11;;;8.23;74.18
62926;BME280;55732;52.248;-0.844;2023-02-12T15:58:26;102730.30;;;8.19;74.13
62926;BME280;55732;52.248;-0.844;2023-02-12T16:00:54;102726.95;;;8.14;74.10
62926;BME280;55732;52.248;-0.844;2023-02-12T16:03:29;102734.00;;;8.11;74.16
62926;BME280;55732;52.248;-0.844;2023-02-12T16:08:35;102731.11;;;8.09;74.25
62926;BME280;55732;52.248;-0.844;2023-02-12T16:11:02;102731.93;;;8.08;74.22
62926;BME280;55732;52.248;-0.844;2023-02-12T16:14:00;102732.70;;;8.05;74.26
62926;BME280;55732;52.248;-0.844;2023-02-12T16:16:29;102738.77;;;8.03;74.32